sensor_id;sensor_type;location;lat;lon;timestamp;pressure;altitude;pressure_sealevel;temperature;humidity
54948;BME280;41113;41.882;12.530;2023-03-12T00:00:38;99998.53;;;14.71;75.80
54948;BME280;41113;41.882;12.530;2023-03-12T00:03:04;99987.38;;;14.74;75.59
54948;BME280;41113;41.882;12.530;2023-03-12T00:05:29;99981.59;;;14.77;75.38
54948;BME280;41113;41.882;12.530;2023-03-12T00:07:55;99976.56;;;14.74;75.85
54948;BME280;41113;41.882;12.530;2023-03-12T00:10:24;99974.81;;;14.58;76.75
54948;BME280;41113;41.882;12.530;2023-03-12T00:12:49;99979.25;;;14.51;76.38
54948;BME280;41113;41.882;12.530;2023-03-12T00:15:15;99993.59;;;14.51;76.71
54948;BME280;41113;41.882;12.530;2023-03-12T00:17:40;99982.44;;;14.54;76.24
54948;BME280;41113;41.882;12.530;2023-03-12T00:20:06;99996.59;;;14.56;76.14
54948;BME280;41113;41.882;12.530;2023-03-12T00:22:32;99997.91;;;14.60;76.01
54948;BME280;41113;41.882;12.530;2023-03-12T00:24:59;100002.63;;;14.67;75.88
54948;BME280;41113;41.882;12.530;2023-03-12T00:27:25;99996.22;;;14.68;75.94
54948;BME280;41113;41.882;12.530;2023-03-12T00:29:51;100009.44;;;14.54;77.54
54948;BME280;41113;41.882;12.530;2023-03-12T00:32:16;100015.94;;;14.45;77.58
54948;BME280;41113;41.882;12.530;2023-03-12T00:34:42;100002.94;;;14.41;77.51
54948;BME280;41113;41.882;12.530;2023-03-12T00:37:08;100007.50;;;14.40;77.46
54948;BME280;41113;41.882;12.530;2023-03-12T00:39:34;100010.00;;;14.42;77.35
54948;BME280;41113;41.882;12.530;2023-03-12T00:41:59;100017.63;;;14.46;77.20
54948;BME280;41113;41.882;12.530;2023-03-12T00:44:25;100017.06;;;14.51;76.84
54948;BME280;41113;41.882;12.530;2023-03-12T00:46:51;100017.06;;;14.51;77.53
54948;BME280;41113;41.882;12.530;2023-03-12T00:49:16;100018.97;;;14.42;78.15
54948;BME280;41113;41.882;12.530;2023-03-12T00:51:42;100018.34;;;14.32;79.68
54948;BME280;41113;41.882;12.530;2023-03-12T00:54:07;100005.16;;;14.29;79.63
54948;BME280;41113;41.882;12.530;2023-03-12T00:56:33;99996.03;;;14.30;79.71
54948;BME280;41113;41.882;12.530;2023-03-12T00:58:58;99984.72;;;14.35;78.55
54948;BME280;41113;41.882;12.530;2023-03-12T01:01:23;99987.06;;;14.38;78.67
54948;BME280;41113;41.882;12.530;2023-03-12T01:03:50;99977.94;;;14.39;78.68
54948;BME280;41113;41.882;12.530;2023-03-12T01:06:16;99968.66;;;14.41;78.31
54948;BME280;41113;41.882;12.530;2023-03-12T01:08:41;99986.38;;;14.44;78.12
54948;BME280;41113;41.882;12.530;2023-03-12T01:11:07;100007.88;;;14.29;79.73
54948;BME280;41113;41.882;12.530;2023-03-12T01:13:36;100010.31;;;14.16;80.37
54948;BME280;41113;41.882;12.530;2023-03-12T01:16:01;100018.97;;;14.03;81.39
54948;BME280;41113;41.882;12.530;2023-03-12T01:18:27;100013.41;;;13.96;82.92
54948;BME280;41113;41.882;12.530;2023-03-12T01:20:52;100017.00;;;13.89;84.91
54948;BME280;41113;41.882;12.530;2023-03-12T01:23:17;100012.47;;;13.81;85.94
54948;BME280;41113;41.882;12.530;2023-03-12T01:25:43;100009.09;;;13.79;86.03
54948;BME280;41113;41.882;12.530;2023-03-12T01:28:08;100012.47;;;13.81;85.00
54948;BME280;41113;41.882;12.530;2023-03-12T01:30:33;100011.63;;;13.81;86.37
54948;BME280;41113;41.882;12.530;2023-03-12T01:32:59;100014.50;;;13.79;85.40
54948;BME280;41113;41.882;12.530;2023-03-12T01:35:25;100017.88;;;13.81;86.33
54948;BME280;41113;41.882;12.530;2023-03-12T01:37:50;100014.16;;;13.82;86.25
54948;BME280;41113;41.882;12.530;2023-03-12T01:40:18;100010.09;;;13.86;85.81
54948;BME280;41113;41.882;12.530;2023-03-12T01:42:55;100014.16;;;13.82;86.70
54948;BME280;41113;41.882;12.530;2023-03-12T01:46:41;100011.09;;;13.85;85.25
54948;BME280;41113;41.882;12.530;2023-03-12T01:48:37;100018.16;;;13.94;84.60
54948;BME280;41113;41.882;12.530;2023-03-12T01:51:05;100007.53;;;13.93;84.83
54948;BME280;41113;41.882;12.530;2023-03-12T01:53:30;100019.53;;;13.82;86.63
54948;BME280;41113;41.882;12.530;2023-03-12T01:55:57;100011.47;;;13.74;87.00
54948;BME280;41113;41.882;12.530;2023-03-12T01:58:23;100003.06;;;13.69;86.96
54948;BME280;41113;41.882;12.530;2023-03-12T02:00:50;100005.09;;;13.67;86.67
54948;BME280;41113;41.882;12.530;2023-03-12T02:03:15;100003.06;;;13.69;85.77
54948;BME280;41113;41.882;12.530;2023-03-12T02:05:45;99997.66;;;13.69;85.48
54948;BME280;41113;41.882;12.530;2023-03-12T02:08:14;100003.06;;;13.69;85.84
54948;BME280;41113;41.882;12.530;2023-03-12T02:10:40;100000.03;;;13.64;86.54
54948;BME280;41113;41.882;12.530;2023-03-12T02:13:06;99999.03;;;13.57;86.64
54948;BME280;41113;41.882;12.530;2023-03-12T02:15:33;99997.69;;;13.53;86.35
54948;BME280;41113;41.882;12.530;2023-03-12T02:18:02;99990.13;;;13.48;87.44
54948;BME280;41113;41.882;12.530;2023-03-12T02:26:24;99997.41;;;13.39;87.98
54948;BME280;41113;41.882;12.530;2023-03-12T02:28:51;99987.63;;;13.38;87.50
54948;BME280;41113;41.882;12.530;2023-03-12T02:31:22;99994.03;;;13.37;87.04
54948;BME280;41113;41.882;12.530;2023-03-12T02:33:48;99991.50;;;13.36;86.84
54948;BME280;41113;41.882;12.530;2023-03-12T02:36:13;99983.59;;;13.34;86.98
54948;BME280;41113;41.882;12.530;2023-03-12T02:38:43;99990.66;;;13.35;86.81
54948;BME280;41113;41.882;12.530;2023-03-12T02:41:13;99990.00;;;13.33;86.77
54948;BME280;41113;41.882;12.530;2023-03-12T02:43:41;99995.22;;;13.35;87.11
54948;BME280;41113;41.882;12.530;2023-03-12T02:46:08;99992.00;;;13.31;87.10
54948;BME280;41113;41.882;12.530;2023-03-12T02:48:34;99997.22;;;13.33;87.18
54948;BME280;41113;41.882;12.530;2023-03-12T02:50:59;99999.75;;;13.26;88.28
54948;BME280;41113;41.882;12.530;2023-03-12T02:53:25;100000.09;;;13.23;88.46
54948;BME280;41113;41.882;12.530;2023-03-12T02:55:50;100001.09;;;13.14;89.37
54948;BME280;41113;41.882;12.530;2023-03-12T02:58:15;99999.09;;;13.08;90.39
54948;BME280;41113;41.882;12.530;2023-03-12T03:00:41;99999.44;;;13.05;91.05
54948;BME280;41113;41.882;12.530;2023-03-12T03:03:06;99999.06;;;13.00;92.08
54948;BME280;41113;41.882;12.530;2023-03-12T03:05:32;99999.56;;;12.95;92.90
54948;BME280;41113;41.882;12.530;2023-03-12T03:07:57;100008.84;;;12.93;92.97
54948;BME280;41113;41.882;12.530;2023-03-12T03:10:22;100010.84;;;12.91;93.50
54948;BME280;41113;41.882;12.530;2023-03-12T03:12:48;100003.28;;;12.94;92.87
54948;BME280;41113;41.882;12.530;2023-03-12T03:15:14;100005.81;;;12.96;92.18
54948;BME280;41113;41.882;12.530;2023-03-12T03:17:39;100014.25;;;13.01;91.50
54948;BME280;41113;41.882;12.530;2023-03-12T03:20:05;100017.63;;;13.03;91.91
54948;BME280;41113;41.882;12.530;2023-03-12T03:22:32;100025.34;;;12.98;92.62
54948;BME280;41113;41.882;12.530;2023-03-12T03:24:58;100035.81;;;13.01;92.01
54948;BME280;41113;41.882;12.530;2023-03-12T03:27:23;100033.97;;;13.01;93.54
54948;BME280;41113;41.882;12.530;2023-03-12T03:29:49;100042.91;;;13.02;92.12
54948;BME280;41113;41.882;12.530;2023-03-12T03:32:15;100047.94;;;13.05;92.90
54948;BME280;41113;41.882;12.530;2023-03-12T03:34:40;100056.72;;;13.07;92.54
54948;BME280;41113;41.882;12.530;2023-03-12T03:37:06;100055.03;;;13.06;93.04
54948;BME280;41113;41.882;12.530;2023-03-12T03:39:31;100065.47;;;13.09;91.94
54948;BME280;41113;41.882;12.530;2023-03-12T03:41:57;100064.28;;;13.12;91.76
54948;BME280;41113;41.882;12.530;2023-03-12T03:44:22;100065.13;;;13.12;91.75
54948;BME280;41113;41.882;12.530;2023-03-12T03:46:48;100066.81;;;13.13;90.95
54948;BME280;41113;41.882;12.530;2023-03-12T03:49:14;100061.44;;;13.13;90.78
54948;BME280;41113;41.882;12.530;2023-03-12T03:51:40;100070.19;;;13.15;90.53
54948;BME280;41113;41.882;12.530;2023-03-12T03:54:07;100075.41;;;13.08;91.60
54948;BME280;41113;41.882;12.530;2023-03-12T03:56:32;100087.53;;;13.04;90.92
54948;BME280;41113;41.882;12.530;2023-03-12T03:58:58;100088.69;;;12.94;92.44
54948;BME280;41113;41.882;12.530;2023-03-12T04:01:23;100092.03;;;12.80;92.72
54948;BME280;41113;41.882;12.530;2023-03-12T04:03:48;100094.56;;;12.73;92.66
54948;BME280;41113;41.882;12.530;2023-03-12T04:06:14;100095.06;;;12.68;93.06
54948;BME280;41113;41.882;12.530;2023-03-12T04:08:39;100102.44;;;12.66;93.04
54948;BME280;41113;41.882;12.530;2023-03-12T04:11:10;100102.41;;;12.58;93.42
54948;BME280;41113;41.882;12.530;2023-03-12T04:13:36;100108.16;;;12.63;93.04
54948;BME280;41113;41.882;12.530;2023-03-12T04:16:02;100112.19;;;12.67;92.54
54948;BME280;41113;41.882;12.530;2023-03-12T04:18:28;100116.59;;;12.68;91.59
54948;BME280;41113;41.882;12.530;2023-03-12T04:20:53;100118.91;;;12.63;92.03
54948;BME280;41113;41.882;12.530;2023-03-12T04:23:19;100114.34;;;12.56;92.27
54948;BME280;41113;41.882;12.530;2023-03-12T04:25:44;100119.38;;;12.51;92.98
54948;BME280;41113;41.882;12.530;2023-03-12T04:28:09;100118.34;;;12.43;93.45
54948;BME280;41113;41.882;12.530;2023-03-12T04:30:35;100122.38;;;12.39;93.51
54948;BME280;41113;41.882;12.530;2023-03-12T04:33:03;100126.94;;;12.39;93.36
54948;BME280;41113;41.882;12.530;2023-03-12T04:35:28;100122.56;;;12.38;93.30
54948;BME280;41113;41.882;12.530;2023-03-12T04:37:54;100124.59;;;12.44;93.07
54948;BME280;41113;41.882;12.530;2023-03-12T04:40:19;100126.31;;;12.53;92.70
54948;BME280;41113;41.882;12.530;2023-03-12T04:42:45;100126.78;;;12.49;91.87
54948;BME280;41113;41.882;12.530;2023-03-12T04:45:12;100127.31;;;12.52;91.62
54948;BME280;41113;41.882;12.530;2023-03-12T04:47:37;100134.53;;;12.52;91.44
54948;BME280;41113;41.882;12.530;2023-03-12T04:50:03;100138.44;;;12.57;91.38
54948;BME280;41113;41.882;12.530;2023-03-12T04:52:28;100133.72;;;12.59;90.93
54948;BME280;41113;41.882;12.530;2023-03-12T04:54:54;100138.09;;;12.52;91.29
54948;BME280;41113;41.882;12.530;2023-03-12T04:57:20;100143.44;;;12.44;91.59
54948;BME280;41113;41.882;12.530;2023-03-12T04:59:46;100147.47;;;12.40;92.25
54948;BME280;41113;41.882;12.530;2023-03-12T05:02:11;100152.25;;;12.28;92.54
54948;BME280;41113;41.882;12.530;2023-03-12T05:04:37;100153.09;;;12.29;92.92
54948;BME280;41113;41.882;12.530;2023-03-12T05:07:02;100153.09;;;12.29;93.27
54948;BME280;41113;41.882;12.530;2023-03-12T05:09:28;100153.09;;;12.29;92.99
54948;BME280;41113;41.882;12.530;2023-03-12T05:11:53;100158.50;;;12.29;92.93
54948;BME280;41113;41.882;12.530;2023-03-12T05:14:19;100160.09;;;12.13;93.01
54948;BME280;41113;41.882;12.530;2023-03-12T05:16:44;100163.63;;;12.14;93.26
54948;BME280;41113;41.882;12.530;2023-03-12T05:19:09;100167.81;;;12.08;93.35
54948;BME280;41113;41.882;12.530;2023-03-12T05:21:35;100175.53;;;12.03;93.92
54948;BME280;41113;41.882;12.530;2023-03-12T05:24:00;100171.84;;;12.04;93.95
54948;BME280;41113;41.882;12.530;2023-03-12T05:26:31;100175.81;;;12.00;94.05
54948;BME280;41113;41.882;12.530;2023-03-12T05:28:58;100175.28;;;11.97;93.80
54948;BME280;41113;41.882;12.530;2023-03-12T05:31:24;100182.69;;;11.95;94.42
54948;BME280;41113;41.882;12.530;2023-03-12T05:33:51;100181.16;;;11.92;94.78
54948;BME280;41113;41.882;12.530;2023-03-12T05:36:16;100187.00;;;11.88;94.69
54948;BME280;41113;41.882;12.530;2023-03-12T05:38:42;100191.22;;;11.90;94.71
54948;BME280;41113;41.882;12.530;2023-03-12T05:41:20;100194.66;;;12.00;94.15
54948;BME280;41113;41.882;12.530;2023-03-12T05:43:45;100193.81;;;12.00;94.35
54948;BME280;41113;41.882;12.530;2023-03-12T05:46:10;100196.66;;;11.98;94.44
54948;BME280;41113;41.882;12.530;2023-03-12T05:48:36;100202.72;;;12.00;94.35
54948;BME280;41113;41.882;12.530;2023-03-12T05:51:01;100205.72;;;12.15;93.90
54948;BME280;41113;41.882;12.530;2023-03-12T05:53:27;100219.84;;;12.43;92.88
54948;BME280;41113;41.882;12.530;2023-03-12T05:55:52;100218.53;;;12.81;90.62
54948;BME280;41113;41.882;12.530;2023-03-12T05:58:17;100220.06;;;12.92;88.91
54948;BME280;41113;41.882;12.530;2023-03-12T06:00:43;100230.66;;;13.19;88.23
54948;BME280;41113;41.882;12.530;2023-03-12T06:03:10;100233.06;;;13.47;86.56
54948;BME280;41113;41.882;12.530;2023-03-12T06:05:36;100235.47;;;13.66;85.51
54948;BME280;41113;41.882;12.530;2023-03-12T06:08:02;100238.34;;;13.73;84.89
54948;BME280;41113;41.882;12.530;2023-03-12T06:10:28;100239.16;;;13.57;84.30
54948;BME280;41113;41.882;12.530;2023-03-12T06:12:53;100247.91;;;13.34;85.39
54948;BME280;41113;41.882;12.530;2023-03-12T06:15:19;100252.13;;;13.37;85.57
54948;BME280;41113;41.882;12.530;2023-03-12T06:17:45;100253.63;;;13.39;85.93
54948;BME280;41113;41.882;12.530;2023-03-12T06:20:10;100263.69;;;13.21;86.71
54948;BME280;41113;41.882;12.530;2023-03-12T06:22:36;100261.34;;;13.26;86.24
54948;BME280;41113;41.882;12.530;2023-03-12T06:25:02;100265.22;;;12.90;87.54
54948;BME280;41113;41.882;12.530;2023-03-12T06:27:28;100281.63;;;12.70;89.23
54948;BME280;41113;41.882;12.530;2023-03-12T06:29:53;100274.50;;;12.61;89.50
54948;BME280;41113;41.882;12.530;2023-03-12T06:32:18;100273.97;;;12.58;90.31
54948;BME280;41113;41.882;12.530;2023-03-12T06:34:44;100282.22;;;12.56;90.29
54948;BME280;41113;41.882;12.530;2023-03-12T06:37:09;100291.28;;;12.55;90.52
54948;BME280;41113;41.882;12.530;2023-03-12T06:39:36;100288.91;;;12.52;90.47
54948;BME280;41113;41.882;12.530;2023-03-12T06:42:02;100298.00;;;12.51;90.66
54948;BME280;41113;41.882;12.530;2023-03-12T06:44:28;100296.53;;;12.57;90.75
54948;BME280;41113;41.882;12.530;2023-03-12T06:46:53;100303.03;;;12.72;89.99
54948;BME280;41113;41.882;12.530;2023-03-12T06:49:19;100316.06;;;12.85;89.03
54948;BME280;41113;41.882;12.530;2023-03-12T06:51:44;100318.44;;;12.88;88.51
54948;BME280;41113;41.882;12.530;2023-03-12T06:54:09;100324.19;;;12.93;88.49
54948;BME280;41113;41.882;12.530;2023-03-12T06:56:35;100331.78;;;12.97;87.94
54948;BME280;41113;41.882;12.530;2023-03-12T06:59:05;100336.06;;;13.08;87.83
54948;BME280;41113;41.882;12.530;2023-03-12T07:01:31;100345.75;;;13.19;87.80
54948;BME280;41113;41.882;12.530;2023-03-12T07:03:56;100344.16;;;13.08;87.08
54948;BME280;41113;41.882;12.530;2023-03-12T07:06:22;100350.19;;;13.02;87.91
54948;BME280;41113;41.882;12.530;2023-03-12T07:08:48;100354.94;;;13.08;87.71
54948;BME280;41113;41.882;12.530;2023-03-12T07:11:14;100355.47;;;13.12;87.49
54948;BME280;41113;41.882;12.530;2023-03-12T07:13:40;100350.69;;;13.31;87.17
54948;BME280;41113;41.882;12.530;2023-03-12T07:16:06;100362.59;;;13.55;86.25
54948;BME280;41113;41.882;12.530;2023-03-12T07:18:33;100362.78;;;13.61;85.10
54948;BME280;41113;41.882;12.530;2023-03-12T07:20:58;100365.53;;;13.69;84.38
54948;BME280;41113;41.882;12.530;2023-03-12T07:23:24;100371.03;;;13.60;84.81
54948;BME280;41113;41.882;12.530;2023-03-12T07:25:50;100371.25;;;13.66;84.66
54948;BME280;41113;41.882;12.530;2023-03-12T07:28:16;100377.78;;;13.64;84.72
54948;BME280;41113;41.882;12.530;2023-03-12T07:30:42;100383.59;;;13.77;84.47
54948;BME280;41113;41.882;12.530;2023-03-12T07:33:14;100387.97;;;13.70;84.04
54948;BME280;41113;41.882;12.530;2023-03-12T07:35:40;100384.59;;;13.84;83.73
54948;BME280;41113;41.882;12.530;2023-03-12T07:38:06;100390.75;;;14.02;83.51
54948;BME280;41113;41.882;12.530;2023-03-12T07:40:32;100395.13;;;14.04;82.31
54948;BME280;41113;41.882;12.530;2023-03-12T07:42:58;100397.16;;;14.01;82.81
54948;BME280;41113;41.882;12.530;2023-03-12T07:45:25;100395.47;;;14.00;82.33
54948;BME280;41113;41.882;12.530;2023-03-12T07:47:51;100400.53;;;14.12;82.44
54948;BME280;41113;41.882;12.530;2023-03-12T07:50:17;100399.88;;;14.26;82.05
54948;BME280;41113;41.882;12.530;2023-03-12T07:52:44;100410.38;;;14.37;81.56
54948;BME280;41113;41.882;12.530;2023-03-12T07:55:10;100410.06;;;14.48;81.09
54948;BME280;41113;41.882;12.530;2023-03-12T07:57:36;100410.41;;;14.53;80.36
54948;BME280;41113;41.882;12.530;2023-03-12T08:00:04;100413.25;;;14.60;80.41
54948;BME280;41113;41.882;12.530;2023-03-12T08:02:33;100419.53;;;14.69;80.12
54948;BME280;41113;41.882;12.530;2023-03-12T08:04:58;100422.91;;;14.71;79.38
54948;BME280;41113;41.882;12.530;2023-03-12T08:07:24;100422.91;;;14.79;79.64
54948;BME280;41113;41.882;12.530;2023-03-12T08:09:50;100430.34;;;14.77;79.20
54948;BME280;41113;41.882;12.530;2023-03-12T08:12:16;100436.75;;;14.84;78.96
54948;BME280;41113;41.882;12.530;2023-03-12T08:14:43;100434.41;;;14.97;78.89
54948;BME280;41113;41.882;12.530;2023-03-12T08:17:10;100436.41;;;15.03;78.46
54948;BME280;41113;41.882;12.530;2023-03-12T08:19:35;100435.38;;;15.12;78.11
54948;BME280;41113;41.882;12.530;2023-03-12T08:22:01;100441.94;;;15.18;78.00
54948;BME280;41113;41.882;12.530;2023-03-12T08:24:26;100437.03;;;15.30;77.86
54948;BME280;41113;41.882;12.530;2023-03-12T08:26:52;100437.69;;;15.40;77.02
54948;BME280;41113;41.882;12.530;2023-03-12T08:29:17;100437.66;;;15.48;77.29
54948;BME280;41113;41.882;12.530;2023-03-12T08:31:43;100436.28;;;15.52;77.05
54948;BME280;41113;41.882;12.530;2023-03-12T08:34:08;100448.13;;;15.59;77.06
54948;BME280;41113;41.882;12.530;2023-03-12T08:36:33;100448.13;;;15.59;76.15
54948;BME280;41113;41.882;12.530;2023-03-12T08:39:01;100451.19;;;15.64;76.18
54948;BME280;41113;41.882;12.530;2023-03-12T08:41:27;100456.06;;;15.61;75.91
54948;BME280;41113;41.882;12.530;2023-03-12T08:43:54;100450.66;;;15.61;75.74
54948;BME280;41113;41.882;12.530;2023-03-12T08:46:20;100455.88;;;15.70;75.49
54948;BME280;41113;41.882;12.530;2023-03-12T08:48:45;100448.75;;;15.77;74.91
54948;BME280;41113;41.882;12.530;2023-03-12T08:51:10;100450.38;;;15.86;75.38
54948;BME280;41113;41.882;12.530;2023-03-12T08:53:39;100460.19;;;15.96;75.21
54948;BME280;41113;41.882;12.530;2023-03-12T08:56:06;100456.09;;;16.00;75.15
54948;BME280;41113;41.882;12.530;2023-03-12T08:58:32;100453.69;;;16.05;74.51
54948;BME280;41113;41.882;12.530;2023-03-12T09:00:57;100464.66;;;16.11;73.23
54948;BME280;41113;41.882;12.530;2023-03-12T09:03:24;100464.75;;;16.26;72.54
54948;BME280;41113;41.882;12.530;2023-03-12T09:05:50;100454.84;;;16.41;73.09
54948;BME280;41113;41.882;12.530;2023-03-12T09:08:24;100462.69;;;16.59;72.81
54948;BME280;41113;41.882;12.530;2023-03-12T09:10:49;100466.69;;;16.71;72.02
54948;BME280;41113;41.882;12.530;2023-03-12T09:13:15;100468.72;;;16.92;71.68
54948;BME280;41113;41.882;12.530;2023-03-12T09:15:40;100468.56;;;17.08;70.91
54948;BME280;41113;41.882;12.530;2023-03-12T09:18:06;100473.44;;;17.13;69.73
54948;BME280;41113;41.882;12.530;2023-03-12T09:20:31;100477.69;;;17.30;69.90
54948;BME280;41113;41.882;12.530;2023-03-12T09:22:56;100476.09;;;17.36;69.54
54948;BME280;41113;41.882;12.530;2023-03-12T09:25:23;100471.13;;;17.39;68.34
54948;BME280;41113;41.882;12.530;2023-03-12T09:27:49;100473.50;;;17.57;69.23
54948;BME280;41113;41.882;12.530;2023-03-12T09:30:17;100475.19;;;17.58;66.98
54948;BME280;41113;41.882;12.530;2023-03-12T09:32:43;100480.53;;;17.66;67.78
54948;BME280;41113;41.882;12.530;2023-03-12T09:35:10;100479.69;;;17.81;68.05
54948;BME280;41113;41.882;12.530;2023-03-12T09:37:36;100478.00;;;17.80;67.65
54948;BME280;41113;41.882;12.530;2023-03-12T09:40:02;100477.25;;;17.86;66.77
54948;BME280;41113;41.882;12.530;2023-03-12T09:42:51;100476.53;;;17.77;66.00
54948;BME280;41113;41.882;12.530;2023-03-12T09:45:27;100484.38;;;17.87;65.90
54948;BME280;41113;41.882;12.530;2023-03-12T09:47:59;100479.13;;;18.00;65.74
54948;BME280;41113;41.882;12.530;2023-03-12T09:50:34;100487.94;;;18.02;65.42
54948;BME280;41113;41.882;12.530;2023-03-12T09:55:40;100488.84;;;18.09;64.06
54948;BME280;41113;41.882;12.530;2023-03-12T09:58:34;100490.06;;;18.21;63.40
54948;BME280;41113;41.882;12.530;2023-03-12T10:01:14;100489.19;;;18.21;63.53
54948;BME280;41113;41.882;12.530;2023-03-12T10:06:42;100493.25;;;18.25;62.50
54948;BME280;41113;41.882;12.530;2023-03-12T10:12:28;100483.81;;;18.42;63.09
54948;BME280;41113;41.882;12.530;2023-03-12T10:18:10;100484.91;;;18.62;63.16
54948;BME280;41113;41.882;12.530;2023-03-12T10:21:04;100485.56;;;18.64;61.96
54948;BME280;41113;41.882;12.530;2023-03-12T10:23:53;100486.78;;;18.62;62.28
54948;BME280;41113;41.882;12.530;2023-03-12T10:26:28;100482.00;;;18.64;63.56
54948;BME280;41113;41.882;12.530;2023-03-12T10:29:02;100488.72;;;18.68;62.24
54948;BME280;41113;41.882;12.530;2023-03-12T10:31:36;100493.31;;;18.68;61.18
54948;BME280;41113;41.882;12.530;2023-03-12T10:34:18;100497.16;;;18.73;61.16
54948;BME280;41113;41.882;12.530;2023-03-12T10:36:46;100497.00;;;18.81;61.82
54948;BME280;41113;41.882;12.530;2023-03-12T10:39:14;100505.13;;;18.75;58.39
54948;BME280;41113;41.882;12.530;2023-03-12T10:41:42;100492.59;;;18.80;60.52
54948;BME280;41113;41.882;12.530;2023-03-12T10:44:15;100497.22;;;18.80;59.59
54948;BME280;41113;41.882;12.530;2023-03-12T10:46:54;100497.22;;;18.80;57.08
54948;BME280;41113;41.882;12.530;2023-03-12T10:49:26;100504.09;;;18.97;58.07
54948;BME280;41113;41.882;12.530;2023-03-12T10:54:22;100496.25;;;18.87;58.82
54948;BME280;41113;41.882;12.530;2023-03-12T10:56:51;100500.47;;;18.90;59.22
54948;BME280;41113;41.882;12.530;2023-03-12T10:59:21;100494.03;;;18.98;58.66
54948;BME280;41113;41.882;12.530;2023-03-12T11:01:49;100491.97;;;19.00;56.95
54948;BME280;41113;41.882;12.530;2023-03-12T11:04:24;100483.69;;;19.14;58.60
54948;BME280;41113;41.882;12.530;2023-03-12T11:12:31;100479.94;;;19.15;57.51
54948;BME280;41113;41.882;12.530;2023-03-12T11:14:58;100482.09;;;19.20;56.52
54948;BME280;41113;41.882;12.530;2023-03-12T11:17:26;100483.38;;;19.24;56.28
54948;BME280;41113;41.882;12.530;2023-03-12T11:19:52;100486.78;;;19.33;57.01
54948;BME280;41113;41.882;12.530;2023-03-12T11:22:33;100477.53;;;19.27;53.30
54948;BME280;41113;41.882;12.530;2023-03-12T11:25:04;100480.66;;;19.24;52.62
54948;BME280;41113;41.882;12.530;2023-03-12T11:27:37;100487.69;;;19.40;52.65
54948;BME280;41113;41.882;12.530;2023-03-12T11:30:10;100478.88;;;19.38;51.62
54948;BME280;41113;41.882;12.530;2023-03-12T11:32:41;100479.47;;;19.33;54.29
54948;BME280;41113;41.882;12.530;2023-03-12T11:35:13;100475.06;;;19.32;53.72
54948;BME280;41113;41.882;12.530;2023-03-12T11:40:44;100475.53;;;19.42;52.98
54948;BME280;41113;41.882;12.530;2023-03-12T11:49:12;100480.19;;;19.48;51.96
54948;BME280;41113;41.882;12.530;2023-03-12T11:51:57;100478.09;;;19.50;52.15
54948;BME280;41113;41.882;12.530;2023-03-12T11:56:58;100478.63;;;19.61;52.27
54948;BME280;41113;41.882;12.530;2023-03-12T11:59:41;100471.94;;;19.63;52.73
54948;BME280;41113;41.882;12.530;2023-03-12T12:05:19;100465.84;;;19.61;49.59
54948;BME280;41113;41.882;12.530;2023-03-12T12:08:04;100473.44;;;19.66;50.09
54948;BME280;41113;41.882;12.530;2023-03-12T12:10:44;100464.69;;;19.77;48.09
54948;BME280;41113;41.882;12.530;2023-03-12T12:13:26;100469.31;;;19.83;49.30
54948;BME280;41113;41.882;12.530;2023-03-12T12:21:48;100469.72;;;19.80;46.89
54948;BME280;41113;41.882;12.530;2023-03-12T12:27:28;100459.22;;;19.77;46.36
54948;BME280;41113;41.882;12.530;2023-03-12T12:35:34;100473.09;;;19.82;46.73
54948;BME280;41113;41.882;12.530;2023-03-12T12:38:13;100465.31;;;19.79;45.66
54948;BME280;41113;41.882;12.530;2023-03-12T12:40:51;100466.59;;;19.83;45.14
54948;BME280;41113;41.882;12.530;2023-03-12T12:46:22;100461.19;;;19.89;46.64
54948;BME280;41113;41.882;12.530;2023-03-12T12:49:00;100467.50;;;19.90;44.17
54948;BME280;41113;41.882;12.530;2023-03-12T12:51:31;100472.72;;;19.92;45.78
54948;BME280;41113;41.882;12.530;2023-03-12T12:54:02;100470.44;;;19.95;44.56
54948;BME280;41113;41.882;12.530;2023-03-12T12:56:41;100467.91;;;19.94;43.78
54948;BME280;41113;41.882;12.530;2023-03-12T13:01:51;100467.31;;;19.98;47.33
54948;BME280;41113;41.882;12.530;2023-03-12T13:04:38;100475.88;;;19.88;43.96
54948;BME280;41113;41.882;12.530;2023-03-12T13:09:44;100487.84;;;19.94;44.24
54948;BME280;41113;41.882;12.530;2023-03-12T13:14:50;100477.16;;;19.99;45.41
54948;BME280;41113;41.882;12.530;2023-03-12T13:17:35;100481.38;;;20.02;44.77
54948;BME280;41113;41.882;12.530;2023-03-12T13:20:21;100488.94;;;20.06;46.12
54948;BME280;41113;41.882;12.530;2023-03-12T13:33:47;100501.16;;;20.17;43.71
54948;BME280;41113;41.882;12.530;2023-03-12T13:39:33;100504.47;;;20.12;39.05
54948;BME280;41113;41.882;12.530;2023-03-12T13:42:00;100506.22;;;20.20;39.33
54948;BME280;41113;41.882;12.530;2023-03-12T13:49:56;100504.31;;;20.20;40.27
54948;BME280;41113;41.882;12.530;2023-03-12T14:03:19;100528.63;;;20.15;41.18
54948;BME280;41113;41.882;12.530;2023-03-12T14:05:57;100512.06;;;20.17;39.53
54948;BME280;41113;41.882;12.530;2023-03-12T14:11:22;100525.94;;;20.22;39.31
54948;BME280;41113;41.882;12.530;2023-03-12T14:16:56;100527.59;;;20.16;42.29
54948;BME280;41113;41.882;12.530;2023-03-12T14:19:24;100517.53;;;20.17;42.66
54948;BME280;41113;41.882;12.530;2023-03-12T14:21:51;100516.19;;;20.06;41.18
54948;BME280;41113;41.882;12.530;2023-03-12T14:26:44;100529.44;;;20.09;42.72
54948;BME280;41113;41.882;12.530;2023-03-12T14:29:19;100527.53;;;20.10;39.35